createdAt,value
2022-12-23T00:00:20.044Z,6.03
2022-12-23T00:02:53.640Z,6.01
2022-12-23T00:05:30.187Z,6.01
2022-12-23T00:08:06.470Z,5.96
2022-12-23T00:10:40.162Z,5.93
2022-12-23T00:13:31.787Z,5.92
2022-12-23T00:16:06.174Z,5.89
2022-12-23T00:18:40.280Z,5.91
2022-12-23T00:21:15.349Z,5.87
2022-12-23T00:23:49.490Z,5.87
2022-12-23T00:26:23.938Z,5.87
2022-12-23T00:28:58.995Z,5.84
2022-12-23T00:31:32.401Z,5.84
2022-12-23T00:34:05.968Z,5.81
2022-12-23T00:36:40.755Z,5.79
2022-12-23T00:39:31.927Z,5.80
2022-12-23T00:42:22.743Z,5.80
2022-12-23T00:45:15.390Z,5.79
2022-12-23T00:48:06.756Z,5.81
2022-12-23T00:50:41.036Z,5.79
2022-12-23T00:53:14.422Z,5.78
2022-12-23T00:55:48.748Z,5.76
2022-12-23T00:58:22.501Z,5.74
2022-12-23T01:01:14.980Z,5.75
2022-12-23T01:04:05.760Z,5.74
2022-12-23T01:06:39.332Z,5.73
2022-12-23T01:09:12.589Z,5.72
2022-12-23T01:11:46.140Z,5.70
2022-12-23T01:14:19.587Z,5.71
2022-12-23T01:16:54.623Z,5.72
2022-12-23T01:19:28.401Z,5.72
2022-12-23T01:22:02.023Z,5.72
2022-12-23T01:24:35.422Z,5.72
2022-12-23T01:27:08.996Z,5.73
2022-12-23T01:29:42.518Z,5.74
2022-12-23T01:32:17.499Z,5.73
2022-12-23T01:34:50.983Z,5.73
2022-12-23T01:37:24.646Z,5.71
2022-12-23T01:39:57.973Z,5.73
2022-12-23T01:42:47.528Z,5.70
2022-12-23T01:45:21.575Z,5.69
2022-12-23T01:47:57.971Z,5.71
2022-12-23T01:50:32.526Z,5.68
2022-12-23T01:53:08.544Z,5.70
2022-12-23T01:55:44.765Z,5.69
2022-12-23T01:58:20.463Z,5.71
2022-12-23T02:01:12.622Z,5.71
2022-12-23T02:03:48.803Z,5.68
2022-12-23T02:06:41.773Z,5.67
2022-12-23T02:09:19.052Z,5.69
2022-12-23T02:12:18.771Z,5.71
2022-12-23T02:15:24.631Z,5.70
2022-12-23T02:18:11.943Z,5.69
2022-12-23T02:21:03.355Z,5.71
2022-12-23T02:23:49.672Z,5.71
2022-12-23T02:26:39.552Z,5.69
2022-12-23T02:29:26.942Z,5.69
2022-12-23T02:32:06.146Z,5.71
2022-12-23T02:34:41.733Z,5.71
2022-12-23T02:37:18.557Z,5.72
2022-12-23T02:39:55.428Z,5.74
2022-12-23T02:42:32.152Z,5.73
2022-12-23T02:45:08.885Z,5.73
2022-12-23T02:47:46.048Z,5.72
2022-12-23T02:50:21.538Z,5.70
2022-12-23T02:52:58.203Z,5.69
2022-12-23T02:55:37.074Z,5.69
2022-12-23T02:58:12.232Z,5.73
2022-12-23T03:00:47.547Z,5.74
2022-12-23T03:03:22.669Z,5.72
2022-12-23T03:05:56.700Z,5.70
2022-12-23T03:08:32.287Z,5.69
2022-12-23T03:11:07.545Z,5.70
2022-12-23T03:13:51.808Z,5.71
2022-12-23T03:16:28.867Z,5.68
2022-12-23T03:19:12.249Z,5.69
2022-12-23T03:21:47.764Z,5.70
2022-12-23T03:24:25.686Z,5.71
2022-12-23T03:27:02.775Z,5.72
2022-12-23T03:29:40.614Z,5.74
2022-12-23T03:32:15.549Z,5.75
2022-12-23T03:34:53.248Z,5.77
2022-12-23T03:37:28.468Z,5.81
2022-12-23T03:40:04.848Z,5.84
2022-12-23T03:42:39.919Z,5.84
2022-12-23T03:45:38.172Z,5.85
2022-12-23T03:48:12.778Z,5.87
2022-12-23T03:50:49.617Z,5.88
2022-12-23T03:53:25.159Z,5.87
2022-12-23T03:56:01.032Z,5.90
2022-12-23T03:58:37.861Z,5.88
2022-12-23T04:01:14.042Z,5.91
2022-12-23T04:03:52.881Z,5.94
2022-12-23T04:06:29.693Z,5.97
2022-12-23T04:09:03.912Z,6.00
2022-12-23T04:11:38.039Z,6.01
2022-12-23T04:14:11.397Z,6.03
2022-12-23T04:16:45.126Z,6.05
2022-12-23T04:19:18.523Z,6.09
2022-12-23T04:21:54.087Z,6.11
2022-12-23T04:24:27.434Z,6.16
2022-12-23T04:27:00.904Z,6.19
2022-12-23T04:29:34.203Z,6.22
2022-12-23T04:32:07.776Z,6.27
2022-12-23T04:34:41.165Z,6.30
2022-12-23T04:37:16.012Z,6.33
2022-12-23T04:39:49.318Z,6.37
2022-12-23T04:42:23.263Z,6.37
2022-12-23T04:44:56.585Z,6.38
2022-12-23T04:47:30.106Z,6.36
2022-12-23T04:50:03.454Z,6.35
2022-12-23T04:52:38.523Z,6.34
2022-12-23T04:55:11.899Z,6.33
2022-12-23T04:57:45.669Z,6.33
2022-12-23T05:00:19.371Z,6.33
2022-12-23T05:02:53.060Z,6.37
2022-12-23T05:05:26.411Z,6.41
2022-12-23T05:08:05.086Z,6.47
2022-12-23T05:10:38.557Z,6.48
2022-12-23T05:13:12.189Z,6.48
2022-12-23T05:15:45.726Z,6.50
2022-12-23T05:18:19.436Z,6.51
2022-12-23T05:20:52.795Z,6.48
2022-12-23T05:23:27.911Z,6.47
2022-12-23T05:26:01.393Z,6.44
2022-12-23T05:28:35.053Z,6.50
2022-12-23T05:31:08.767Z,6.54
2022-12-23T05:33:42.419Z,6.52
2022-12-23T05:36:15.896Z,6.44
2022-12-23T05:38:50.842Z,6.47
2022-12-23T05:41:24.161Z,6.47
2022-12-23T05:43:57.713Z,6.47
2022-12-23T05:46:31.163Z,6.48
2022-12-23T05:49:04.704Z,6.47
2022-12-23T05:51:38.173Z,6.44
2022-12-23T05:54:13.031Z,6.44
2022-12-23T05:56:46.388Z,6.43
2022-12-23T05:59:19.873Z,6.47
2022-12-23T06:01:53.234Z,6.47
2022-12-23T06:04:27.086Z,6.46
2022-12-23T06:07:00.660Z,6.45
2022-12-23T06:09:35.681Z,6.45
2022-12-23T06:12:09.195Z,6.42
2022-12-23T06:14:42.759Z,6.34
2022-12-23T06:17:16.253Z,6.34
2022-12-23T06:19:49.919Z,6.33
2022-12-23T06:22:23.546Z,6.34
2022-12-23T06:24:58.409Z,6.28
2022-12-23T06:27:31.714Z,6.24
2022-12-23T06:30:05.571Z,6.27
2022-12-23T06:32:39.192Z,6.27
2022-12-23T06:35:13.463Z,6.23
2022-12-23T06:37:46.872Z,6.20
2022-12-23T06:40:21.855Z,6.15
2022-12-23T06:42:55.170Z,6.09
2022-12-23T06:45:28.766Z,6.08
2022-12-23T06:48:02.075Z,6.06
2022-12-23T06:50:35.592Z,6.03
2022-12-23T06:53:08.927Z,6.05
2022-12-23T06:55:43.926Z,6.06
2022-12-23T06:58:17.211Z,6.13
2022-12-23T07:00:50.804Z,6.17
2022-12-23T07:03:24.431Z,6.15
2022-12-23T07:05:58.076Z,6.11
2022-12-23T07:08:31.445Z,6.17
2022-12-23T07:11:06.439Z,6.16
2022-12-23T07:13:39.721Z,6.16
2022-12-23T07:16:13.418Z,6.16
2022-12-23T07:18:46.814Z,6.21
2022-12-23T07:21:28.549Z,6.19
2022-12-23T07:24:03.106Z,6.19
2022-12-23T07:26:38.064Z,6.17
2022-12-23T07:29:11.379Z,6.16
2022-12-23T07:31:44.907Z,6.21
2022-12-23T07:34:18.271Z,6.22
2022-12-23T07:36:51.798Z,6.22
2022-12-23T07:39:25.445Z,6.21
2022-12-23T07:42:25.009Z,6.16
2022-12-23T07:44:53.656Z,6.22
2022-12-23T07:47:27.169Z,6.25
2022-12-23T07:50:00.456Z,6.24
2022-12-23T07:52:34.011Z,6.30
2022-12-23T07:55:07.583Z,6.29
2022-12-23T07:57:42.714Z,6.32
2022-12-23T08:00:16.336Z,6.33
2022-12-23T08:02:50.297Z,6.36
2022-12-23T08:05:23.875Z,6.34
2022-12-23T08:07:57.554Z,6.31
2022-12-23T08:10:30.905Z,6.28
2022-12-23T08:13:05.936Z,6.29
2022-12-23T08:15:39.256Z,6.32
2022-12-23T08:18:12.788Z,6.61
2022-12-23T08:20:54.010Z,6.64
2022-12-23T08:23:28.663Z,6.52
2022-12-23T08:26:02.715Z,6.56
2022-12-23T08:28:38.412Z,6.54
2022-12-23T08:31:13.356Z,6.54
2022-12-23T08:33:47.911Z,6.48
2022-12-23T08:36:23.295Z,6.40
2022-12-23T08:38:58.361Z,6.47
2022-12-23T08:41:32.608Z,6.47
2022-12-23T08:44:07.872Z,6.53
2022-12-23T08:46:41.753Z,6.50
2022-12-23T08:49:15.360Z,6.54
2022-12-23T08:51:48.982Z,6.58
2022-12-23T08:54:23.767Z,6.57
2022-12-23T08:56:57.047Z,6.49
2022-12-23T08:59:31.907Z,6.49
2022-12-23T09:02:05.570Z,6.55
2022-12-23T09:04:39.098Z,6.57
2022-12-23T09:07:12.547Z,6.67
2022-12-23T09:09:46.099Z,6.65
2022-12-23T09:12:19.507Z,6.53
2022-12-23T09:14:54.871Z,6.53
2022-12-23T09:17:28.272Z,6.46
2022-12-23T09:20:01.883Z,6.31
2022-12-23T09:22:35.886Z,6.22
2022-12-23T09:25:10.895Z,6.12
2022-12-23T09:27:44.357Z,6.06
2022-12-23T09:30:19.290Z,6.08
2022-12-23T09:32:52.630Z,6.12
2022-12-23T09:35:26.156Z,6.15
2022-12-23T09:37:59.435Z,6.21
2022-12-23T09:40:34.075Z,6.19
2022-12-23T09:43:10.934Z,6.21
2022-12-23T09:45:52.142Z,6.37
2022-12-23T09:48:26.930Z,6.44
2022-12-23T09:51:01.488Z,6.49
2022-12-23T09:53:41.695Z,6.52
2022-12-23T09:56:17.930Z,6.53
2022-12-23T09:58:54.911Z,6.50
2022-12-23T10:01:33.535Z,6.53
2022-12-23T10:04:25.654Z,6.51
2022-12-23T10:07:10.556Z,6.50
2022-12-23T10:09:44.927Z,6.56
2022-12-23T10:12:27.403Z,6.51
2022-12-23T10:15:03.547Z,6.47
2022-12-23T10:17:41.554Z,6.60
2022-12-23T10:20:18.384Z,6.58
2022-12-23T10:22:52.641Z,6.51
2022-12-23T10:25:34.507Z,6.60
2022-12-23T10:28:10.191Z,6.65
2022-12-23T10:31:17.263Z,6.67
2022-12-23T10:33:45.724Z,6.72
2022-12-23T10:36:23.846Z,6.59
2022-12-23T10:39:02.844Z,6.48
2022-12-23T10:41:39.103Z,6.52
2022-12-23T10:44:25.409Z,6.52
2022-12-23T10:47:03.519Z,6.40
2022-12-23T10:49:44.438Z,6.38
2022-12-23T10:52:19.932Z,6.33
2022-12-23T10:54:53.481Z,6.48
2022-12-23T10:57:26.916Z,6.63
2022-12-23T11:00:00.646Z,6.66
2022-12-23T11:02:41.034Z,6.60
2022-12-23T11:05:21.947Z,6.64
2022-12-23T11:07:55.773Z,6.74
2022-12-23T11:10:32.928Z,6.79
2022-12-23T11:13:06.293Z,6.74
2022-12-23T11:15:40.712Z,6.68
2022-12-23T11:18:18.340Z,6.57
2022-12-23T11:21:06.787Z,6.60
2022-12-23T11:23:40.436Z,6.58
2022-12-23T11:26:18.965Z,6.47
2022-12-23T11:28:53.430Z,6.39
2022-12-23T11:31:28.456Z,6.37
2022-12-23T11:34:02.321Z,6.42
2022-12-23T11:36:37.245Z,6.45
2022-12-23T11:39:19.462Z,6.52
2022-12-23T11:41:54.156Z,6.68
2022-12-23T11:44:29.158Z,6.73
2022-12-23T11:47:18.839Z,6.73
2022-12-23T11:49:53.162Z,6.76
2022-12-23T11:52:28.952Z,6.66
2022-12-23T11:55:03.261Z,6.62
2022-12-23T11:57:40.463Z,6.80
2022-12-23T12:00:20.538Z,6.88
2022-12-23T12:02:56.202Z,6.89
2022-12-23T12:05:32.450Z,6.67
2022-12-23T12:08:10.265Z,6.68
2022-12-23T12:10:44.068Z,6.63
2022-12-23T12:13:22.806Z,6.77
2022-12-23T12:16:03.441Z,6.93
2022-12-23T12:18:37.252Z,7.05
2022-12-23T12:21:13.423Z,7.09
2022-12-23T12:23:55.484Z,7.02
2022-12-23T12:26:42.600Z,6.81
2022-12-23T12:29:18.091Z,6.80
2022-12-23T12:31:52.332Z,6.89
2022-12-23T12:34:31.152Z,6.94
2022-12-23T12:37:07.938Z,7.01
2022-12-23T12:39:50.974Z,7.04
2022-12-23T12:42:30.286Z,7.07
2022-12-23T12:45:11.936Z,7.05
2022-12-23T12:47:55.023Z,7.05
2022-12-23T12:50:32.145Z,7.10
2022-12-23T12:53:21.550Z,7.11
2022-12-23T12:55:58.435Z,7.14
2022-12-23T12:58:31.971Z,7.16
2022-12-23T13:01:13.454Z,7.14
2022-12-23T13:04:08.737Z,7.13
2022-12-23T13:06:47.235Z,7.09
2022-12-23T13:09:28.662Z,6.97
2022-12-23T13:12:06.644Z,6.83
2022-12-23T13:14:48.975Z,6.92
2022-12-23T13:17:25.678Z,6.94
2022-12-23T13:20:03.985Z,7.01
2022-12-23T13:22:38.551Z,6.98
2022-12-23T13:25:14.939Z,6.94
2022-12-23T13:27:55.432Z,6.95
2022-12-23T13:30:31.795Z,6.75
2022-12-23T13:33:13.918Z,6.75
2022-12-23T13:36:01.302Z,6.71
2022-12-23T13:38:50.621Z,6.77
2022-12-23T13:41:28.103Z,6.77
2022-12-23T13:44:05.321Z,6.80
2022-12-23T13:46:44.342Z,6.81
2022-12-23T13:49:24.448Z,6.72
2022-12-23T13:52:03.679Z,6.70
2022-12-23T13:54:45.958Z,6.69
2022-12-23T13:57:26.137Z,6.62
2022-12-23T14:00:21.701Z,6.65
2022-12-23T14:03:05.877Z,6.65
2022-12-23T14:05:40.907Z,6.62
2022-12-23T14:08:23.190Z,6.59
2022-12-23T14:10:57.910Z,6.60
2022-12-23T14:13:32.668Z,6.59
2022-12-23T14:16:21.405Z,6.60
2022-12-23T14:19:05.886Z,6.60
2022-12-23T14:21:44.283Z,6.59
2022-12-23T14:24:31.440Z,6.56
2022-12-23T14:27:16.336Z,6.60
2022-12-23T14:29:57.444Z,6.66
2022-12-23T14:32:41.732Z,6.68
2022-12-23T14:35:21.103Z,6.71
2022-12-23T14:38:10.739Z,6.72
2022-12-23T14:40:52.627Z,6.73
2022-12-23T14:43:28.214Z,6.69
2022-12-23T14:46:02.369Z,6.64
2022-12-23T14:49:15.956Z,6.58
2022-12-23T14:51:50.768Z,6.50
2022-12-23T14:54:38.690Z,6.47
2022-12-23T14:57:17.703Z,6.43
2022-12-23T14:59:56.853Z,6.46
2022-12-23T15:02:32.346Z,6.46
2022-12-23T15:05:06.296Z,6.47
2022-12-23T15:07:43.220Z,6.42
2022-12-23T15:10:18.330Z,6.44
2022-12-23T15:12:53.628Z,6.47
2022-12-23T15:15:28.411Z,6.52
2022-12-23T15:18:02.281Z,6.51
2022-12-23T15:20:36.075Z,6.47
2022-12-23T15:23:11.784Z,6.43
2022-12-23T15:25:47.013Z,6.42
2022-12-23T15:28:21.924Z,6.42
2022-12-23T15:30:56.730Z,6.44
2022-12-23T15:36:30.504Z,6.39
2022-12-23T15:39:09.250Z,6.37
2022-12-23T15:41:43.730Z,6.33
2022-12-23T15:44:19.633Z,6.29
2022-12-23T15:46:53.905Z,6.27
2022-12-23T15:49:27.327Z,6.27
2022-12-23T15:52:10.892Z,6.27
2022-12-23T15:54:54.950Z,6.30
2022-12-23T15:57:30.589Z,6.32
2022-12-23T16:00:05.232Z,6.42
2022-12-23T16:05:33.528Z,6.40
2022-12-23T16:08:11.537Z,6.42
2022-12-23T16:10:57.783Z,6.45
2022-12-23T16:13:31.447Z,6.40
2022-12-23T16:16:21.116Z,6.39
2022-12-23T16:18:54.906Z,6.39
2022-12-23T16:21:30.726Z,6.39
2022-12-23T16:24:08.437Z,6.41
2022-12-23T16:26:43.960Z,6.40
2022-12-23T16:29:17.702Z,6.43
2022-12-23T16:31:56.070Z,6.43
2022-12-23T16:34:34.932Z,6.40
2022-12-23T16:37:08.711Z,6.36
2022-12-23T16:39:42.345Z,6.38
2022-12-23T16:42:17.052Z,6.33
2022-12-23T16:44:51.254Z,6.33
2022-12-23T16:47:24.629Z,6.31
2022-12-23T16:49:58.355Z,6.33
2022-12-23T16:52:31.818Z,6.33
2022-12-23T16:55:07.494Z,6.30
2022-12-23T16:57:42.340Z,6.31
2022-12-23T17:00:16.966Z,6.34
2022-12-23T17:02:50.575Z,6.30
2022-12-23T17:05:24.887Z,6.27
2022-12-23T17:07:58.321Z,6.32
2022-12-23T17:10:31.950Z,6.26
2022-12-23T17:13:06.708Z,6.26
2022-12-23T17:15:40.603Z,6.24
2022-12-23T17:18:14.435Z,6.26
2022-12-23T17:20:48.686Z,6.26
2022-12-23T17:23:26.711Z,6.29
2022-12-23T17:26:00.350Z,6.32
2022-12-23T17:28:35.213Z,6.37
2022-12-23T17:31:14.354Z,6.43
2022-12-23T17:33:48.899Z,6.39
2022-12-23T17:36:22.654Z,6.42
2022-12-23T17:38:56.206Z,6.45
2022-12-23T17:41:30.923Z,6.44
2022-12-23T17:44:06.565Z,6.43
2022-12-23T17:46:40.271Z,6.32
2022-12-23T17:49:13.772Z,6.32
2022-12-23T17:51:47.481Z,6.30
2022-12-23T17:54:23.729Z,6.28
2022-12-23T17:56:58.240Z,6.27
2022-12-23T17:59:33.024Z,6.25
2022-12-23T18:02:13.058Z,6.22
2022-12-23T18:04:46.421Z,6.28
2022-12-23T18:07:20.880Z,6.26
2022-12-23T18:09:54.620Z,6.23
2022-12-23T18:12:30.768Z,6.24
2022-12-23T18:15:06.642Z,6.22
2022-12-23T18:17:40.321Z,6.23
2022-12-23T18:20:16.025Z,6.23
2022-12-23T18:22:50.662Z,6.22
2022-12-23T18:25:24.773Z,6.21
2022-12-23T18:27:58.753Z,6.16
2022-12-23T18:30:33.502Z,6.17
2022-12-23T18:33:08.845Z,6.23
2022-12-23T18:35:43.983Z,6.20
2022-12-23T18:38:18.521Z,6.25
2022-12-23T18:40:54.107Z,6.25
2022-12-23T18:43:28.394Z,6.24
2022-12-23T18:46:03.497Z,6.23
2022-12-23T18:48:37.470Z,6.14
2022-12-23T18:51:14.568Z,6.13
2022-12-23T18:53:48.537Z,6.12
2022-12-23T18:56:22.651Z,6.12
2022-12-23T18:58:56.308Z,6.12
2022-12-23T19:01:32.275Z,6.13
2022-12-23T19:04:07.377Z,6.09
2022-12-23T19:06:40.865Z,6.13
2022-12-23T19:09:15.879Z,6.13
2022-12-23T19:11:50.425Z,6.15
2022-12-23T19:14:24.267Z,6.18
2022-12-23T19:17:00.972Z,6.20
2022-12-23T19:19:35.420Z,6.23
2022-12-23T19:22:08.800Z,6.26
2022-12-23T19:25:03.843Z,6.18
2022-12-23T19:27:38.736Z,6.12
2022-12-23T19:30:13.831Z,6.09
2022-12-23T19:32:53.207Z,6.13
2022-12-23T19:35:26.949Z,6.19
2022-12-23T19:38:00.422Z,6.16
2022-12-23T19:40:34.336Z,6.10
2022-12-23T19:43:08.036Z,6.10
2022-12-23T19:45:41.782Z,6.09
2022-12-23T19:48:16.737Z,6.04
2022-12-23T19:50:57.067Z,6.12
2022-12-23T19:53:30.537Z,6.05
2022-12-23T19:56:05.644Z,6.00
2022-12-23T19:58:40.186Z,5.99
2022-12-23T20:01:14.470Z,6.04
2022-12-23T20:03:50.475Z,6.03
2022-12-23T20:06:25.218Z,6.04
2022-12-23T20:09:04.007Z,6.07
2022-12-23T20:11:39.230Z,6.07
2022-12-23T20:14:13.334Z,6.06
2022-12-23T20:16:48.390Z,6.04
2022-12-23T20:19:23.198Z,6.04
2022-12-23T20:21:56.903Z,6.05
2022-12-23T20:24:33.172Z,6.07
2022-12-23T20:27:11.436Z,6.04
2022-12-23T20:29:46.003Z,6.05
2022-12-23T20:32:19.505Z,6.10
2022-12-23T20:34:54.376Z,6.02
2022-12-23T20:37:27.921Z,6.01
2022-12-23T20:40:01.313Z,6.00
2022-12-23T20:42:35.141Z,5.99
2022-12-23T20:45:08.895Z,5.97
2022-12-23T20:47:42.453Z,5.93
2022-12-23T20:50:17.185Z,5.91
2022-12-23T20:52:50.725Z,5.90
2022-12-23T20:55:24.089Z,5.90
2022-12-23T20:57:57.650Z,5.86
2022-12-23T21:00:30.913Z,5.87
2022-12-23T21:03:10.227Z,5.84
2022-12-23T21:05:45.345Z,5.84
2022-12-23T21:08:19.104Z,5.79
2022-12-23T21:10:53.581Z,5.79
2022-12-23T21:13:27.121Z,5.79
2022-12-23T21:16:04.021Z,5.76
2022-12-23T21:18:40.532Z,5.73
2022-12-23T21:21:15.586Z,5.73
2022-12-23T21:23:49.130Z,5.69
2022-12-23T21:26:23.344Z,5.67
2022-12-23T21:28:59.224Z,5.68
2022-12-23T21:31:34.129Z,5.71
2022-12-23T21:34:08.353Z,5.67
2022-12-23T21:36:43.603Z,5.70
2022-12-23T21:39:17.331Z,5.71
2022-12-23T21:41:52.706Z,5.76
2022-12-23T21:44:26.238Z,5.72
2022-12-23T21:46:59.685Z,5.75
2022-12-23T21:49:33.305Z,5.75
2022-12-23T21:52:07.947Z,5.77
2022-12-23T21:54:41.513Z,5.79
2022-12-23T21:57:14.828Z,5.76
2022-12-23T21:59:48.431Z,5.72
2022-12-23T22:02:21.849Z,5.72
2022-12-23T22:04:55.520Z,5.73
2022-12-23T22:07:30.243Z,5.77
2022-12-23T22:10:03.884Z,5.79
2022-12-23T22:12:37.228Z,5.73
2022-12-23T22:15:11.899Z,5.76
2022-12-23T22:17:45.511Z,5.72
2022-12-23T22:20:19.605Z,5.71
2022-12-23T22:22:54.371Z,5.72
2022-12-23T22:25:27.934Z,5.77
2022-12-23T22:28:01.505Z,5.71
2022-12-23T22:30:35.167Z,5.71
2022-12-23T22:33:08.824Z,5.66
2022-12-23T22:35:42.423Z,5.61
2022-12-23T22:38:17.385Z,5.63
2022-12-23T22:40:52.491Z,5.59
2022-12-23T22:43:25.807Z,5.57
2022-12-23T22:46:00.736Z,5.51
2022-12-23T22:48:34.320Z,5.52
2022-12-23T22:51:09.838Z,5.52
2022-12-23T22:53:44.639Z,5.50
2022-12-23T22:56:19.531Z,5.47
2022-12-23T22:58:53.670Z,5.43
2022-12-23T23:01:28.449Z,5.41
2022-12-23T23:04:02.770Z,5.41
2022-12-23T23:06:37.919Z,5.39
2022-12-23T23:09:14.607Z,5.40
2022-12-23T23:11:48.607Z,5.35
2022-12-23T23:14:21.991Z,5.37
2022-12-23T23:16:55.653Z,5.37
2022-12-23T23:19:29.042Z,5.36
2022-12-23T23:22:02.917Z,5.35
2022-12-23T23:24:37.640Z,5.30
2022-12-23T23:27:11.287Z,5.31
2022-12-23T23:29:44.629Z,5.28
2022-12-23T23:32:18.352Z,5.27
2022-12-23T23:34:51.773Z,5.31
2022-12-23T23:37:25.450Z,5.32
2022-12-23T23:40:00.223Z,5.26
2022-12-23T23:42:34.049Z,5.24
2022-12-23T23:45:07.979Z,5.30
2022-12-23T23:47:41.706Z,5.24
2022-12-23T23:50:15.627Z,5.22
2022-12-23T23:52:49.281Z,5.24
2022-12-23T23:55:23.940Z,5.28
2022-12-23T23:57:57.511Z,5.25
